createdAt,value
2023-01-04T00:01:15.503Z,13.30
2023-01-04T00:03:42.733Z,10.18
2023-01-04T00:06:12.736Z,10.18
2023-01-04T00:08:39.745Z,12.95
2023-01-04T00:11:13.480Z,9.02
2023-01-04T00:13:40.714Z,8.73
2023-01-04T00:16:11.304Z,13.60
2023-01-04T00:18:38.133Z,17.60
2023-01-04T00:21:25.693Z,12.05
2023-01-04T00:23:55.519Z,9.07
2023-01-04T00:26:33.512Z,9.13
2023-01-04T00:29:02.721Z,13.13
2023-01-04T00:31:30.047Z,11.65
2023-01-04T00:33:58.648Z,9.57
2023-01-04T00:36:26.148Z,10.80
2023-01-04T00:39:09.549Z,11.05
2023-01-04T00:41:59.773Z,11.23
2023-01-04T00:44:28.105Z,11.60
2023-01-04T00:46:54.921Z,10.35
2023-01-04T00:49:21.605Z,11.65
2023-01-04T00:51:48.221Z,10.88
2023-01-04T00:54:16.087Z,11.43
2023-01-04T00:56:43.161Z,10.95
2023-01-04T00:59:11.827Z,13.40
2023-01-04T01:01:40.182Z,11.38
2023-01-04T01:04:07.182Z,10.27
2023-01-04T01:06:34.743Z,11.35
2023-01-04T01:09:01.996Z,11.98
2023-01-04T01:11:30.232Z,11.02
2023-01-04T01:13:57.702Z,10.45
2023-01-04T01:16:53.796Z,11.23
2023-01-04T01:19:12.638Z,10.80
2023-01-04T01:21:39.533Z,10.20
2023-01-04T01:24:06.445Z,10.52
2023-01-04T01:26:33.190Z,15.25
2023-01-04T01:28:59.858Z,11.05
2023-01-04T01:31:28.913Z,15.30
2023-01-04T01:33:57.058Z,10.98
2023-01-04T01:36:25.638Z,10.88
2023-01-04T01:38:53.469Z,12.88
2023-01-04T01:41:28.927Z,11.05
2023-01-04T01:44:02.780Z,11.13
2023-01-04T01:46:41.995Z,11.90
2023-01-04T01:49:30.180Z,13.00
2023-01-04T01:51:59.948Z,14.10
2023-01-04T01:54:32.653Z,12.15
2023-01-04T01:57:01.784Z,13.73
2023-01-04T01:59:29.837Z,13.35
2023-01-04T02:01:56.782Z,13.02
2023-01-04T02:04:24.265Z,13.63
2023-01-04T02:06:56.170Z,14.70
2023-01-04T02:09:23.219Z,13.50
2023-01-04T02:11:50.207Z,20.48
2023-01-04T02:14:28.255Z,13.88
2023-01-04T02:17:10.501Z,12.15
2023-01-04T02:19:46.188Z,13.02
2023-01-04T02:22:46.195Z,12.90
2023-01-04T02:25:50.582Z,14.05
2023-01-04T02:28:45.882Z,13.07
2023-01-04T02:31:29.072Z,14.32
2023-01-04T02:34:00.286Z,14.02
2023-01-04T02:36:45.816Z,14.77
2023-01-04T02:39:39.996Z,14.80
2023-01-04T02:42:24.568Z,14.75
2023-01-04T02:45:04.099Z,13.63
2023-01-04T02:47:56.482Z,13.30
2023-01-04T02:50:52.430Z,13.77
2023-01-04T02:53:22.979Z,13.80
2023-01-04T02:56:15.730Z,14.68
2023-01-04T02:59:12.978Z,11.57
2023-01-04T03:02:26.675Z,10.25
2023-01-04T03:05:54.043Z,10.15
2023-01-04T03:08:40.103Z,14.13
2023-01-04T03:11:30.954Z,12.10
2023-01-04T03:14:32.864Z,10.80
2023-01-04T03:17:04.587Z,9.13
2023-01-04T03:19:51.344Z,20.17
2023-01-04T03:22:58.562Z,13.45
2023-01-04T03:25:51.855Z,12.07
2023-01-04T03:28:39.707Z,13.63
2023-01-04T03:31:33.757Z,9.95
2023-01-04T03:34:19.294Z,17.20
2023-01-04T03:37:00.205Z,16.38
2023-01-04T03:40:13.488Z,17.23
2023-01-04T03:43:23.748Z,18.60
2023-01-04T03:46:15.213Z,17.52
2023-01-04T03:49:13.448Z,23.13
2023-01-04T03:51:40.799Z,19.17
2023-01-04T03:54:21.764Z,22.17
2023-01-04T03:56:50.166Z,18.13
2023-01-04T03:59:17.106Z,21.63
2023-01-04T04:01:45.240Z,17.20
2023-01-04T04:04:30.631Z,22.75
2023-01-04T04:09:42.452Z,17.80
2023-01-04T04:12:09.139Z,25.98
2023-01-04T04:14:35.931Z,17.50
2023-01-04T04:17:02.702Z,14.35
2023-01-04T04:19:29.430Z,12.10
2023-01-04T04:21:56.019Z,17.75
2023-01-04T04:24:25.196Z,13.77
2023-01-04T04:26:54.370Z,11.85
2023-01-04T04:29:21.672Z,14.35
2023-01-04T04:31:48.504Z,15.38
2023-01-04T04:34:15.240Z,9.00
2023-01-04T04:36:41.821Z,6.15
2023-01-04T04:39:08.568Z,9.00
2023-01-04T04:41:38.163Z,4.47
2023-01-04T04:44:25.532Z,3.30
2023-01-04T04:46:52.150Z,4.43
2023-01-04T04:49:18.908Z,1.95
2023-01-04T04:51:46.549Z,3.22
2023-01-04T04:54:20.775Z,3.70
2023-01-04T04:56:48.729Z,2.80
2023-01-04T04:59:15.937Z,2.65
2023-01-04T05:01:42.618Z,3.10
2023-01-04T05:04:09.422Z,2.90
2023-01-04T05:06:36.096Z,4.70
2023-01-04T05:09:02.820Z,2.80
2023-01-04T05:11:47.979Z,2.83
2023-01-04T05:14:14.577Z,3.22
2023-01-04T05:16:41.310Z,3.22
2023-01-04T05:19:08.053Z,3.88
2023-01-04T05:21:34.866Z,2.65
2023-01-04T05:24:01.500Z,2.75
2023-01-04T05:26:28.152Z,3.30
2023-01-04T05:28:54.767Z,3.60
2023-01-04T05:31:22.022Z,2.78
2023-01-04T05:33:48.777Z,3.40
2023-01-04T05:36:15.558Z,6.00
2023-01-04T05:38:42.138Z,1.90
2023-01-04T05:41:28.878Z,2.63
2023-01-04T05:43:55.705Z,2.75
2023-01-04T05:46:22.695Z,5.03
2023-01-04T05:48:49.402Z,3.38
2023-01-04T05:51:16.091Z,2.88
2023-01-04T05:53:42.659Z,2.03
2023-01-04T05:56:09.398Z,2.20
2023-01-04T05:58:35.996Z,2.20
2023-01-04T06:01:02.773Z,2.38
2023-01-04T06:03:29.399Z,2.20
2023-01-04T06:05:56.083Z,2.42
2023-01-04T06:08:22.726Z,2.58
2023-01-04T06:10:54.362Z,2.60
2023-01-04T06:13:21.272Z,3.13
2023-01-04T06:15:47.850Z,2.63
2023-01-04T06:18:14.446Z,3.53
2023-01-04T06:20:43.449Z,2.70
2023-01-04T06:23:10.142Z,4.68
2023-01-04T06:25:37.593Z,3.47
2023-01-04T06:28:04.204Z,3.47
2023-01-04T06:30:30.893Z,4.20
2023-01-04T06:32:57.498Z,3.78
2023-01-04T06:35:24.177Z,4.28
2023-01-04T06:37:50.747Z,3.90
2023-01-04T06:40:17.459Z,4.50
2023-01-04T06:42:47.140Z,4.90
2023-01-04T06:45:15.628Z,5.13
2023-01-04T06:47:42.578Z,4.82
2023-01-04T06:50:10.491Z,4.78
2023-01-04T06:52:37.110Z,4.63
2023-01-04T06:55:04.991Z,4.53
2023-01-04T06:57:32.173Z,5.00
2023-01-04T06:59:58.899Z,4.30
2023-01-04T07:02:26.560Z,4.57
2023-01-04T07:04:53.465Z,5.22
2023-01-04T07:07:20.680Z,5.90
2023-01-04T07:09:47.388Z,4.82
2023-01-04T07:12:14.033Z,4.63
2023-01-04T07:14:40.648Z,4.50
2023-01-04T07:17:07.254Z,4.78
2023-01-04T07:19:33.898Z,3.80
2023-01-04T07:22:01.715Z,4.93
2023-01-04T07:24:30.685Z,4.00
2023-01-04T07:26:59.658Z,3.88
2023-01-04T07:29:26.922Z,4.00
2023-01-04T07:31:53.907Z,4.30
2023-01-04T07:34:23.770Z,3.95
2023-01-04T07:36:50.768Z,3.70
2023-01-04T07:39:18.400Z,4.25
2023-01-04T07:41:45.849Z,3.95
2023-01-04T07:44:14.498Z,3.90
2023-01-04T07:46:42.360Z,4.60
2023-01-04T07:49:16.982Z,4.53
2023-01-04T07:51:46.044Z,4.30
2023-01-04T07:54:13.084Z,4.80
2023-01-04T07:56:39.700Z,4.57
2023-01-04T07:59:10.908Z,4.15
2023-01-04T08:01:38.657Z,4.05
2023-01-04T08:04:07.072Z,4.35
2023-01-04T08:06:34.534Z,4.30
2023-01-04T08:09:02.175Z,4.10
2023-01-04T08:11:29.063Z,5.55
2023-01-04T08:13:55.980Z,4.88
2023-01-04T08:16:27.380Z,5.47
2023-01-04T08:18:55.916Z,5.00
2023-01-04T08:21:23.661Z,5.43
2023-01-04T08:23:50.393Z,6.10
2023-01-04T08:26:18.371Z,5.00
2023-01-04T08:28:45.636Z,5.28
2023-01-04T08:31:14.959Z,4.88
2023-01-04T08:33:42.971Z,4.72
2023-01-04T08:36:27.542Z,4.07
2023-01-04T08:39:03.193Z,3.00
2023-01-04T08:41:56.823Z,2.15
2023-01-04T08:44:22.848Z,2.17
2023-01-04T08:46:50.809Z,1.63
2023-01-04T08:49:17.983Z,1.98
2023-01-04T08:51:45.493Z,2.20
2023-01-04T08:54:12.312Z,2.58
2023-01-04T08:56:39.516Z,3.38
2023-01-04T08:59:06.781Z,3.58
2023-01-04T09:01:36.467Z,3.50
2023-01-04T09:04:03.430Z,3.45
2023-01-04T09:06:30.541Z,3.10
2023-01-04T09:08:57.786Z,3.38
2023-01-04T09:11:25.296Z,3.42
2023-01-04T09:14:04.376Z,3.45
2023-01-04T09:16:33.939Z,3.20
2023-01-04T09:19:00.608Z,3.42
2023-01-04T09:21:27.624Z,4.03
2023-01-04T09:23:54.597Z,4.65
2023-01-04T09:26:23.289Z,5.07
2023-01-04T09:28:52.131Z,4.60
2023-01-04T09:31:21.850Z,4.78
2023-01-04T09:34:13.608Z,5.38
2023-01-04T09:36:35.108Z,5.95
2023-01-04T09:39:01.770Z,6.03
2023-01-04T09:41:30.689Z,5.38
2023-01-04T09:44:02.785Z,6.63
2023-01-04T09:46:38.687Z,5.07
2023-01-04T09:49:05.363Z,4.72
2023-01-04T09:51:36.729Z,4.90
2023-01-04T09:54:12.230Z,6.35
2023-01-04T09:56:51.242Z,7.55
2023-01-04T09:59:23.389Z,6.88
2023-01-04T10:02:14.212Z,4.60
2023-01-04T10:04:50.258Z,4.30
2023-01-04T10:07:31.841Z,5.63
2023-01-04T10:10:00.187Z,5.68
2023-01-04T10:12:40.534Z,6.20
2023-01-04T10:15:14.672Z,6.55
2023-01-04T10:21:29.896Z,6.63
2023-01-04T10:24:15.780Z,7.13
2023-01-04T10:26:47.048Z,8.23
2023-01-04T10:29:38.740Z,9.48
2023-01-04T10:32:20.259Z,5.15
2023-01-04T10:34:48.170Z,3.85
2023-01-04T10:37:24.893Z,3.65
2023-01-04T10:39:55.482Z,3.40
2023-01-04T10:42:34.818Z,5.10
2023-01-04T10:45:14.191Z,4.97
2023-01-04T10:47:50.124Z,6.30
2023-01-04T10:50:27.376Z,6.90
2023-01-04T10:53:01.649Z,6.38
2023-01-04T10:55:39.020Z,5.43
2023-01-04T10:58:33.483Z,4.70
2023-01-04T11:01:07.813Z,4.32
2023-01-04T11:03:51.789Z,4.32
2023-01-04T11:06:30.967Z,4.30
2023-01-04T11:09:13.328Z,3.22
2023-01-04T11:11:47.657Z,2.92
2023-01-04T11:14:15.334Z,3.08
2023-01-04T11:16:46.775Z,3.92
2023-01-04T11:19:13.674Z,3.83
2023-01-04T11:21:57.031Z,4.13
2023-01-04T11:24:33.167Z,3.58
2023-01-04T11:27:06.367Z,3.40
2023-01-04T11:29:41.493Z,6.20
2023-01-04T11:32:31.063Z,3.70
2023-01-04T11:34:57.785Z,4.75
2023-01-04T11:37:27.872Z,3.63
2023-01-04T11:40:24.428Z,3.38
2023-01-04T11:43:09.967Z,3.72
2023-01-04T11:45:36.974Z,4.32
2023-01-04T11:48:10.921Z,3.78
2023-01-04T11:50:48.415Z,4.18
2023-01-04T11:53:31.822Z,6.63
2023-01-04T11:56:09.464Z,5.63
2023-01-04T11:58:36.206Z,3.47
2023-01-04T12:01:03.509Z,4.90
2023-01-04T12:03:34.636Z,3.80
2023-01-04T12:06:01.477Z,3.50
2023-01-04T12:08:33.896Z,3.80
2023-01-04T12:11:03.159Z,4.10
2023-01-04T12:13:31.809Z,4.38
2023-01-04T12:16:10.439Z,4.78
2023-01-04T12:18:43.434Z,4.70
2023-01-04T12:21:20.934Z,4.80
2023-01-04T12:23:48.356Z,5.13
2023-01-04T12:26:16.396Z,5.22
2023-01-04T12:28:46.285Z,4.95
2023-01-04T12:31:19.807Z,4.55
2023-01-04T12:33:56.137Z,4.53
2023-01-04T12:36:38.212Z,3.83
2023-01-04T12:39:14.086Z,3.97
2023-01-04T12:41:40.694Z,8.35
2023-01-04T12:44:46.591Z,2.55
2023-01-04T12:47:37.763Z,2.60
2023-01-04T12:50:08.535Z,2.10
2023-01-04T12:53:19.551Z,2.00
2023-01-04T12:55:44.768Z,1.60
2023-01-04T12:58:58.123Z,1.60
2023-01-04T13:01:35.325Z,1.48
2023-01-04T13:04:41.344Z,1.70
2023-01-04T13:07:42.467Z,2.28
2023-01-04T13:10:29.319Z,1.70
2023-01-04T13:13:20.435Z,1.88
2023-01-04T13:16:10.696Z,1.23
2023-01-04T13:19:01.238Z,2.28
2023-01-04T13:21:34.279Z,1.65
2023-01-04T13:24:04.415Z,1.00
2023-01-04T13:26:31.499Z,0.80
2023-01-04T13:29:14.878Z,1.35
2023-01-04T13:31:50.109Z,0.93
2023-01-04T13:34:30.513Z,0.80
2023-01-04T13:37:13.644Z,0.90
2023-01-04T13:40:01.588Z,1.00
2023-01-04T13:42:35.766Z,1.40
2023-01-04T13:45:19.182Z,1.92
2023-01-04T13:47:49.354Z,1.55
2023-01-04T13:50:27.546Z,1.70
2023-01-04T13:53:06.292Z,2.30
2023-01-04T13:55:38.372Z,2.63
2023-01-04T13:58:15.476Z,4.22
2023-01-04T14:00:54.617Z,3.45
2023-01-04T14:03:24.344Z,3.53
2023-01-04T14:05:54.318Z,3.15
2023-01-04T14:08:31.301Z,5.25
2023-01-04T14:10:58.332Z,2.97
2023-01-04T14:13:25.211Z,1.80
2023-01-04T14:16:18.326Z,2.65
2023-01-04T14:18:44.927Z,2.13
2023-01-04T14:21:17.172Z,2.13
2023-01-04T14:23:44.973Z,2.35
2023-01-04T14:26:31.967Z,2.60
2023-01-04T14:28:58.847Z,2.97
2023-01-04T14:31:32.682Z,2.97
2023-01-04T14:34:05.057Z,2.25
2023-01-04T14:36:32.589Z,1.98
2023-01-04T14:39:09.322Z,1.67
2023-01-04T14:41:51.919Z,1.60
2023-01-04T14:44:25.143Z,2.92
2023-01-04T14:46:54.400Z,3.95
2023-01-04T14:49:22.226Z,5.07
2023-01-04T14:51:51.844Z,3.80
2023-01-04T14:54:24.614Z,3.20
2023-01-04T14:56:53.253Z,5.43
2023-01-04T14:59:20.127Z,3.05
2023-01-04T15:01:46.909Z,2.63
2023-01-04T15:04:13.931Z,3.22
2023-01-04T15:06:51.844Z,3.67
2023-01-04T15:09:18.792Z,2.08
2023-01-04T15:11:45.453Z,1.55
2023-01-04T15:14:13.181Z,2.75
2023-01-04T15:16:40.171Z,4.00
2023-01-04T15:19:06.835Z,2.83
2023-01-04T15:21:40.402Z,4.25
2023-01-04T15:24:07.944Z,3.17
2023-01-04T15:26:34.693Z,2.08
2023-01-04T15:29:02.178Z,2.13
2023-01-04T15:31:35.029Z,1.48
2023-01-04T15:34:05.161Z,2.25
2023-01-04T15:36:31.768Z,2.22
2023-01-04T15:38:58.543Z,3.05
2023-01-04T15:41:43.809Z,2.90
2023-01-04T15:44:11.311Z,3.33
2023-01-04T15:46:38.176Z,3.70
2023-01-04T15:49:04.898Z,4.00
2023-01-04T15:51:31.539Z,3.50
2023-01-04T15:53:58.287Z,2.70
2023-01-04T15:56:25.286Z,2.92
2023-01-04T15:58:54.527Z,3.47
2023-01-04T16:01:21.749Z,3.47
2023-01-04T16:03:53.419Z,3.40
2023-01-04T16:06:21.734Z,3.78
2023-01-04T16:08:50.311Z,4.07
2023-01-04T16:11:20.085Z,3.92
2023-01-04T16:13:48.079Z,3.90
2023-01-04T16:16:15.504Z,7.55
2023-01-04T16:18:50.262Z,2.97
2023-01-04T16:21:20.650Z,5.05
2023-01-04T16:23:51.770Z,7.50
2023-01-04T16:26:18.602Z,5.65
2023-01-04T16:28:54.029Z,5.10
2023-01-04T16:31:22.090Z,5.55
2023-01-04T16:33:53.382Z,7.70
2023-01-04T16:36:20.437Z,6.30
2023-01-04T16:38:47.151Z,4.85
2023-01-04T16:41:17.541Z,7.75
2023-01-04T16:43:49.226Z,6.80
2023-01-04T16:46:31.213Z,5.60
2023-01-04T16:49:03.485Z,5.45
2023-01-04T16:51:32.590Z,6.18
2023-01-04T16:54:01.894Z,5.20
2023-01-04T16:56:28.923Z,6.53
2023-01-04T16:58:55.941Z,7.95
2023-01-04T17:01:28.168Z,6.85
2023-01-04T17:04:10.268Z,9.55
2023-01-04T17:06:42.357Z,8.35
2023-01-04T17:09:12.943Z,7.97
2023-01-04T17:14:30.778Z,9.95
2023-01-04T17:16:57.902Z,10.40
2023-01-04T17:19:24.756Z,12.02
2023-01-04T17:21:51.737Z,7.55
2023-01-04T17:24:19.359Z,10.23
2023-01-04T17:26:45.973Z,8.27
2023-01-04T17:29:14.744Z,11.65
2023-01-04T17:31:43.657Z,10.13
2023-01-04T17:34:20.057Z,8.70
2023-01-04T17:36:49.191Z,10.90
2023-01-04T17:39:15.824Z,10.00
2023-01-04T17:41:42.513Z,12.43
2023-01-04T17:44:10.506Z,10.73
2023-01-04T17:46:38.059Z,8.73
2023-01-04T17:49:22.229Z,12.57
2023-01-04T17:51:50.819Z,7.95
2023-01-04T17:54:17.689Z,8.38
2023-01-04T17:56:44.341Z,9.73
2023-01-04T17:59:12.110Z,11.20
2023-01-04T18:01:38.836Z,16.35
2023-01-04T18:04:05.646Z,10.55
2023-01-04T18:06:34.746Z,16.33
2023-01-04T18:09:03.188Z,12.70
2023-01-04T18:11:30.093Z,12.05
2023-01-04T18:13:56.794Z,15.30
2023-01-04T18:16:26.557Z,15.27
2023-01-04T18:18:54.666Z,12.30
2023-01-04T18:21:28.857Z,19.52
2023-01-04T18:27:19.167Z,16.98
2023-01-04T18:29:31.822Z,13.93
2023-01-04T18:31:58.576Z,13.30
2023-01-04T18:34:26.469Z,21.20
2023-01-04T18:36:53.368Z,20.73
2023-01-04T18:39:19.936Z,22.58
2023-01-04T18:41:46.607Z,25.05
2023-01-04T18:44:31.931Z,12.73
2023-01-04T18:46:59.212Z,16.23
2023-01-04T18:49:25.845Z,14.52
2023-01-04T18:51:52.449Z,13.15
2023-01-04T18:54:21.273Z,14.50
2023-01-04T18:56:47.888Z,20.10
2023-01-04T18:59:17.490Z,9.50
2023-01-04T19:01:45.345Z,22.95
2023-01-04T19:04:12.776Z,20.02
2023-01-04T19:06:40.714Z,19.90
2023-01-04T19:09:08.083Z,16.88
2023-01-04T19:11:35.665Z,24.20
2023-01-04T19:14:03.054Z,21.40
2023-01-04T19:16:30.923Z,16.60
2023-01-04T19:18:58.979Z,24.73
2023-01-04T19:21:25.678Z,18.95
2023-01-04T19:23:52.545Z,19.90
2023-01-04T19:26:20.456Z,18.15
2023-01-04T19:28:47.119Z,18.02
2023-01-04T19:31:15.099Z,18.75
2023-01-04T19:33:41.833Z,14.60
2023-01-04T19:36:10.812Z,11.48
2023-01-04T19:38:37.907Z,20.02
2023-01-04T19:41:05.620Z,20.60
2023-01-04T19:43:33.121Z,23.27
2023-01-04T19:45:59.937Z,17.95
2023-01-04T19:48:26.785Z,19.35
2023-01-04T19:51:22.942Z,11.18
2023-01-04T19:53:51.270Z,11.23
2023-01-04T19:56:18.215Z,20.30
2023-01-04T19:58:45.077Z,18.15
2023-01-04T20:01:19.802Z,20.65
2023-01-04T20:06:14.965Z,25.88
2023-01-04T20:08:42.508Z,24.80
2023-01-04T20:11:09.935Z,15.60
2023-01-04T20:13:36.993Z,25.02
2023-01-04T20:16:04.737Z,23.40
2023-01-04T20:18:32.014Z,20.10
2023-01-04T20:20:59.387Z,27.48
2023-01-04T20:23:26.204Z,22.52
2023-01-04T20:25:54.113Z,19.50
2023-01-04T20:28:23.163Z,19.30
2023-01-04T20:31:02.718Z,20.58
2023-01-04T20:33:30.828Z,28.13
2023-01-04T20:35:57.586Z,19.15
2023-01-04T20:38:24.215Z,17.67
2023-01-04T20:40:50.795Z,25.33
2023-01-04T20:43:37.122Z,18.73
2023-01-04T20:46:09.048Z,20.30
2023-01-04T20:48:35.793Z,23.13
2023-01-04T20:51:10.404Z,26.67
2023-01-04T20:53:37.444Z,19.00
2023-01-04T20:56:08.893Z,33.45
2023-01-04T20:58:35.591Z,19.20
2023-01-04T21:01:04.074Z,23.85
2023-01-04T21:03:30.835Z,20.92
2023-01-04T21:06:01.595Z,23.17
2023-01-04T21:08:28.968Z,17.73
2023-01-04T21:10:56.532Z,27.75
2023-01-04T21:13:23.709Z,27.20
2023-01-04T21:15:50.428Z,31.20
2023-01-04T21:18:17.282Z,24.90
2023-01-04T21:20:44.467Z,27.80
2023-01-04T21:23:16.418Z,23.95
2023-01-04T21:25:43.791Z,24.88
2023-01-04T21:28:12.191Z,30.23
2023-01-04T21:30:40.653Z,30.13
2023-01-04T21:33:08.442Z,32.95
2023-01-04T21:35:35.311Z,26.73
2023-01-04T21:38:02.249Z,26.50
2023-01-04T21:40:29.006Z,34.70
2023-01-04T21:42:56.991Z,35.22
2023-01-04T21:45:24.200Z,32.45
2023-01-04T21:47:51.132Z,39.97
2023-01-04T21:50:18.318Z,20.27
2023-01-04T21:52:44.956Z,6.78
2023-01-04T21:55:11.765Z,11.52
2023-01-04T21:57:38.520Z,14.77
2023-01-04T22:00:07.136Z,20.88
2023-01-04T22:02:34.070Z,25.05
2023-01-04T22:05:01.043Z,23.23
2023-01-04T22:07:27.735Z,21.77
2023-01-04T22:09:57.584Z,22.48
2023-01-04T22:12:24.658Z,38.65
2023-01-04T22:14:51.559Z,32.92
2023-01-04T22:17:18.255Z,48.50
2023-01-04T22:19:44.819Z,41.33
2023-01-04T22:22:11.423Z,31.52
2023-01-04T22:24:38.495Z,42.47
2023-01-04T22:27:05.603Z,38.88
2023-01-04T22:29:32.216Z,43.92
2023-01-04T22:31:59.426Z,42.90
2023-01-04T22:34:27.928Z,39.63
2023-01-04T22:36:54.709Z,39.60
2023-01-04T22:39:21.468Z,23.58
2023-01-04T22:41:48.331Z,36.58
2023-01-04T22:44:14.955Z,30.20
2023-01-04T22:46:41.746Z,29.58
2023-01-04T22:49:10.035Z,36.72
2023-01-04T22:51:37.261Z,22.55
2023-01-04T22:54:05.461Z,34.30
2023-01-04T22:56:32.180Z,37.42
2023-01-04T22:58:58.990Z,36.63
2023-01-04T23:01:28.903Z,30.77
2023-01-04T23:03:56.889Z,33.35
2023-01-04T23:06:25.629Z,23.77
2023-01-04T23:09:01.106Z,31.65
2023-01-04T23:11:30.112Z,34.03
2023-01-04T23:13:57.719Z,30.55
2023-01-04T23:16:31.863Z,30.10
2023-01-04T23:19:00.536Z,17.75
2023-01-04T23:21:27.404Z,43.35
2023-01-04T23:23:54.060Z,30.52
2023-01-04T23:26:22.833Z,42.92
2023-01-04T23:28:50.248Z,43.50
2023-01-04T23:31:22.578Z,29.05
2023-01-04T23:33:53.146Z,22.67
2023-01-04T23:36:40.003Z,39.45
2023-01-04T23:39:11.375Z,23.52
2023-01-04T23:41:47.445Z,27.33
2023-01-04T23:47:00.169Z,31.58
2023-01-04T23:49:30.033Z,39.72
2023-01-04T23:51:58.478Z,39.70
2023-01-04T23:54:25.850Z,37.33
2023-01-04T23:56:52.568Z,30.05
2023-01-04T23:59:19.783Z,34.35
